Washington, NC

2:02 PM EST on February 14, 2016 (GMT -0500)
Warren | | Change Station
CLOSE
Current Station
Airport
Location: Washington,
Elevation: 39 ft
Nearby Weather Stations

Elev 39 ft 35.57 °N, 77.05 °W | Updated 7 minutes ago

Clear
Clear
28 °F
Feels Like 25 °F
N
4
Wind Variable Wind from ENE

Today
High -- | Low -- °F
--% Chance of Precip.
Yesterday
High -- | Low -- °F
Precip. -- in
Pressure 30.51 in
Visibility 10.0 miles
Clouds Scattered Clouds 8500 ft
Windchill 25 °F
Dew Point 0 °F
Humidity 29%
Rainfall 0.00 in
Snow Depth Not available.
6:56 AM 5:48 PM
Waxing Crescent, 44% visible
METAR KOCW 141855Z AUTO 07003KT 10SM SCT085 M02/M18 A3051 RMK AO2 T10201179
Pressure 30.51 in
Visibility 10.0 miles
Clouds Scattered Clouds 8500 ft
Windchill 25 °F
Dew Point 0 °F
Humidity 29%
Rainfall 0.00 in
Snow Depth Not available.
6:56 AM 5:48 PM
Waxing Crescent, 44% visible
METAR KOCW 141855Z AUTO 07003KT 10SM SCT085 M02/M18 A3051 RMK AO2 T10201179

10-Day Weather Forecast

Almanac

Astronomy

Feb. 14, 2016 Rise Set
Actual Time
Civil Twilight
Nautical Twilight
Astronomical Twilight
Moon
Length of Visible Light
Length of Day
Tomorrow will be .
, % of the Moon is Illuminated

Today's Extremes

State Highs State Lows

Community

WunderPhotos

Upload Photos

1,892,874 photos uploaded!

WunderBlog® & News

Nearby

Air Quality

  Air Quality AQ Index Pollutant
Not available.

Snow Depth

Station Depth Elevation

Earthquake Activity

City Distance Mag. Time & Date
Minimum magnitude displayed is 2.5.

Coastal Water Temperatures

Place Temperature

Stations

Nearby Weather Stations

Station Location Temp. Windchill Dew Point Humidity Wind Precip. Elev Updated Type
                   

Watches & Warnings

There are currently no watches in effect.